sensor_id;sensor_type;location;lat;lon;timestamp;temperature;humidity
39095;DHT22;24840;47.508;19.376;2022-11-06T00:01:25;10.30;99.90
39095;DHT22;24840;47.508;19.376;2022-11-06T00:03:52;10.20;99.90
39095;DHT22;24840;47.508;19.376;2022-11-06T00:06:18;10.30;99.90
39095;DHT22;24840;47.508;19.376;2022-11-06T00:09:05;10.20;99.90
39095;DHT22;24840;47.508;19.376;2022-11-06T00:11:32;10.30;99.90
39095;DHT22;24840;47.508;19.376;2022-11-06T00:14:00;10.20;99.90
39095;DHT22;24840;47.508;19.376;2022-11-06T00:16:27;10.20;99.90
39095;DHT22;24840;47.508;19.376;2022-11-06T00:18:54;10.20;99.90
39095;DHT22;24840;47.508;19.376;2022-11-06T00:21:22;10.20;99.90
39095;DHT22;24840;47.508;19.376;2022-11-06T00:23:49;10.20;99.90
39095;DHT22;24840;47.508;19.376;2022-11-06T00:26:25;10.20;99.90
39095;DHT22;24840;47.508;19.376;2022-11-06T00:28:52;10.20;99.90
39095;DHT22;24840;47.508;19.376;2022-11-06T00:31:22;10.20;99.90
39095;DHT22;24840;47.508;19.376;2022-11-06T00:33:48;10.20;99.90
39095;DHT22;24840;47.508;19.376;2022-11-06T00:36:17;10.20;99.90
39095;DHT22;24840;47.508;19.376;2022-11-06T00:38:44;10.20;99.90
39095;DHT22;24840;47.508;19.376;2022-11-06T00:41:15;10.10;99.90
39095;DHT22;24840;47.508;19.376;2022-11-06T00:43:46;10.10;99.90
39095;DHT22;24840;47.508;19.376;2022-11-06T00:46:13;10.00;99.90
39095;DHT22;24840;47.508;19.376;2022-11-06T00:48:40;10.10;99.90
39095;DHT22;24840;47.508;19.376;2022-11-06T00:51:16;10.10;99.90
39095;DHT22;24840;47.508;19.376;2022-11-06T00:53:43;10.10;99.90
39095;DHT22;24840;47.508;19.376;2022-11-06T00:56:15;10.10;99.90
39095;DHT22;24840;47.508;19.376;2022-11-06T00:58:42;10.10;99.90
39095;DHT22;24840;47.508;19.376;2022-11-06T01:01:14;10.10;99.90
39095;DHT22;24840;47.508;19.376;2022-11-06T01:03:41;10.20;99.90
39095;DHT22;24840;47.508;19.376;2022-11-06T01:06:13;10.10;99.90
39095;DHT22;24840;47.508;19.376;2022-11-06T01:08:40;10.10;99.90
39095;DHT22;24840;47.508;19.376;2022-11-06T01:11:15;10.10;99.90
39095;DHT22;24840;47.508;19.376;2022-11-06T01:13:43;10.00;99.90
39095;DHT22;24840;47.508;19.376;2022-11-06T01:16:13;10.10;99.90
39095;DHT22;24840;47.508;19.376;2022-11-06T01:18:41;10.00;99.90
39095;DHT22;24840;47.508;19.376;2022-11-06T01:21:12;10.00;99.90
39095;DHT22;24840;47.508;19.376;2022-11-06T01:23:38;10.00;99.90
39095;DHT22;24840;47.508;19.376;2022-11-06T01:26:06;10.10;99.90
39095;DHT22;24840;47.508;19.376;2022-11-06T01:28:33;10.10;99.90
39095;DHT22;24840;47.508;19.376;2022-11-06T01:31:03;10.00;99.90
39095;DHT22;24840;47.508;19.376;2022-11-06T01:33:30;10.00;99.90
39095;DHT22;24840;47.508;19.376;2022-11-06T01:35:56;10.00;99.90
39095;DHT22;24840;47.508;19.376;2022-11-06T01:38:22;10.00;99.90
39095;DHT22;24840;47.508;19.376;2022-11-06T01:40:48;10.00;99.90
39095;DHT22;24840;47.508;19.376;2022-11-06T01:43:20;10.00;99.90
39095;DHT22;24840;47.508;19.376;2022-11-06T01:45:53;10.00;99.90
39095;DHT22;24840;47.508;19.376;2022-11-06T01:48:22;10.00;99.90
39095;DHT22;24840;47.508;19.376;2022-11-06T01:50:52;10.00;99.90
39095;DHT22;24840;47.508;19.376;2022-11-06T01:53:18;10.00;99.90
39095;DHT22;24840;47.508;19.376;2022-11-06T01:55:47;10.00;99.90
39095;DHT22;24840;47.508;19.376;2022-11-06T01:58:17;10.00;99.90
39095;DHT22;24840;47.508;19.376;2022-11-06T02:00:46;10.00;99.90
39095;DHT22;24840;47.508;19.376;2022-11-06T02:03:13;10.10;99.90
39095;DHT22;24840;47.508;19.376;2022-11-06T02:05:40;10.00;99.90
39095;DHT22;24840;47.508;19.376;2022-11-06T02:08:09;10.10;99.90
39095;DHT22;24840;47.508;19.376;2022-11-06T02:10:36;10.00;99.90
39095;DHT22;24840;47.508;19.376;2022-11-06T02:13:17;10.00;99.90
39095;DHT22;24840;47.508;19.376;2022-11-06T02:29:20;9.90;99.90
39095;DHT22;24840;47.508;19.376;2022-11-06T02:31:49;9.90;99.90
39095;DHT22;24840;47.508;19.376;2022-11-06T02:34:18;10.00;99.90
39095;DHT22;24840;47.508;19.376;2022-11-06T02:37:12;10.00;99.90
39095;DHT22;24840;47.508;19.376;2022-11-06T02:39:41;9.90;99.90
39095;DHT22;24840;47.508;19.376;2022-11-06T02:42:10;10.00;99.90
39095;DHT22;24840;47.508;19.376;2022-11-06T02:44:38;10.00;99.90
39095;DHT22;24840;47.508;19.376;2022-11-06T02:47:08;9.90;99.90
39095;DHT22;24840;47.508;19.376;2022-11-06T02:49:45;9.90;99.90
39095;DHT22;24840;47.508;19.376;2022-11-06T02:52:19;9.90;99.90
39095;DHT22;24840;47.508;19.376;2022-11-06T02:54:54;9.90;99.90
39095;DHT22;24840;47.508;19.376;2022-11-06T02:57:23;9.90;99.90
39095;DHT22;24840;47.508;19.376;2022-11-06T03:00:07;9.90;99.90
39095;DHT22;24840;47.508;19.376;2022-11-06T03:02:43;9.90;99.90
39095;DHT22;24840;47.508;19.376;2022-11-06T03:05:24;10.00;99.90
39095;DHT22;24840;47.508;19.376;2022-11-06T03:08:25;9.90;99.90
39095;DHT22;24840;47.508;19.376;2022-11-06T03:11:16;10.00;99.90
39095;DHT22;24840;47.508;19.376;2022-11-06T03:13:50;10.00;99.90
39095;DHT22;24840;47.508;19.376;2022-11-06T03:19:05;9.90;99.90
39095;DHT22;24840;47.508;19.376;2022-11-06T03:24:39;9.90;99.90
39095;DHT22;24840;47.508;19.376;2022-11-06T03:27:17;9.90;99.90
39095;DHT22;24840;47.508;19.376;2022-11-06T03:30:08;9.90;99.90
39095;DHT22;24840;47.508;19.376;2022-11-06T03:33:00;10.00;99.90
39095;DHT22;24840;47.508;19.376;2022-11-06T03:35:34;10.00;99.90
39095;DHT22;24840;47.508;19.376;2022-11-06T03:38:08;10.00;99.90
39095;DHT22;24840;47.508;19.376;2022-11-06T03:40:38;10.00;99.90
39095;DHT22;24840;47.508;19.376;2022-11-06T03:43:07;10.00;99.90
39095;DHT22;24840;47.508;19.376;2022-11-06T03:45:35;9.90;99.90
39095;DHT22;24840;47.508;19.376;2022-11-06T03:48:14;9.90;99.90
39095;DHT22;24840;47.508;19.376;2022-11-06T03:53:24;9.90;99.90
39095;DHT22;24840;47.508;19.376;2022-11-06T03:55:55;9.90;99.90
39095;DHT22;24840;47.508;19.376;2022-11-06T03:58:30;9.90;99.90
39095;DHT22;24840;47.508;19.376;2022-11-06T04:00:58;10.00;99.90
39095;DHT22;24840;47.508;19.376;2022-11-06T04:03:40;9.90;99.90
39095;DHT22;24840;47.508;19.376;2022-11-06T04:06:12;10.00;99.90
39095;DHT22;24840;47.508;19.376;2022-11-06T04:08:40;10.00;99.90
39095;DHT22;24840;47.508;19.376;2022-11-06T04:11:26;10.00;99.90
39095;DHT22;24840;47.508;19.376;2022-11-06T04:14:14;10.00;99.90
39095;DHT22;24840;47.508;19.376;2022-11-06T04:16:47;9.90;99.90
39095;DHT22;24840;47.508;19.376;2022-11-06T04:19:17;9.90;99.90
39095;DHT22;24840;47.508;19.376;2022-11-06T04:22:33;10.00;99.90
39095;DHT22;24840;47.508;19.376;2022-11-06T04:28:02;10.00;99.90
39095;DHT22;24840;47.508;19.376;2022-11-06T04:30:57;9.90;99.90
39095;DHT22;24840;47.508;19.376;2022-11-06T04:33:48;9.90;99.90
39095;DHT22;24840;47.508;19.376;2022-11-06T04:36:38;9.90;99.90
39095;DHT22;24840;47.508;19.376;2022-11-06T04:39:17;9.90;99.90
39095;DHT22;24840;47.508;19.376;2022-11-06T04:44:23;9.90;99.90
39095;DHT22;24840;47.508;19.376;2022-11-06T04:46:59;9.90;99.90
39095;DHT22;24840;47.508;19.376;2022-11-06T04:49:28;9.90;99.90
39095;DHT22;24840;47.508;19.376;2022-11-06T04:51:56;9.90;99.90
39095;DHT22;24840;47.508;19.376;2022-11-06T04:54:23;9.90;99.90
39095;DHT22;24840;47.508;19.376;2022-11-06T04:56:49;9.90;99.90
39095;DHT22;24840;47.508;19.376;2022-11-06T04:59:16;9.90;99.90
39095;DHT22;24840;47.508;19.376;2022-11-06T05:01:43;9.90;99.90
39095;DHT22;24840;47.508;19.376;2022-11-06T05:04:10;9.90;99.90
39095;DHT22;24840;47.508;19.376;2022-11-06T05:06:36;9.90;99.90
39095;DHT22;24840;47.508;19.376;2022-11-06T05:09:02;10.00;99.90
39095;DHT22;24840;47.508;19.376;2022-11-06T05:11:28;10.00;99.90
39095;DHT22;24840;47.508;19.376;2022-11-06T05:13:54;10.00;99.90
39095;DHT22;24840;47.508;19.376;2022-11-06T05:16:20;9.90;99.90
39095;DHT22;24840;47.508;19.376;2022-11-06T05:18:46;9.80;99.90
39095;DHT22;24840;47.508;19.376;2022-11-06T05:21:12;9.90;99.90
39095;DHT22;24840;47.508;19.376;2022-11-06T05:23:56;9.90;99.90
39095;DHT22;24840;47.508;19.376;2022-11-06T05:26:22;9.90;99.90
39095;DHT22;24840;47.508;19.376;2022-11-06T05:28:48;9.90;99.90
39095;DHT22;24840;47.508;19.376;2022-11-06T05:31:14;9.90;99.90
39095;DHT22;24840;47.508;19.376;2022-11-06T05:33:40;9.90;99.90
39095;DHT22;24840;47.508;19.376;2022-11-06T05:36:06;9.90;99.90
39095;DHT22;24840;47.508;19.376;2022-11-06T05:38:33;9.90;99.90
39095;DHT22;24840;47.508;19.376;2022-11-06T05:40:59;9.80;99.90
39095;DHT22;24840;47.508;19.376;2022-11-06T05:43:25;9.90;99.90
39095;DHT22;24840;47.508;19.376;2022-11-06T05:45:51;9.90;99.90
39095;DHT22;24840;47.508;19.376;2022-11-06T05:48:17;9.80;99.90
39095;DHT22;24840;47.508;19.376;2022-11-06T05:50:43;9.80;99.90
39095;DHT22;24840;47.508;19.376;2022-11-06T05:53:09;9.90;99.90
39095;DHT22;24840;47.508;19.376;2022-11-06T05:55:35;9.90;99.90
39095;DHT22;24840;47.508;19.376;2022-11-06T05:58:01;9.90;99.90
39095;DHT22;24840;47.508;19.376;2022-11-06T06:00:27;9.90;99.90
39095;DHT22;24840;47.508;19.376;2022-11-06T06:02:54;9.90;99.90
39095;DHT22;24840;47.508;19.376;2022-11-06T06:05:20;9.90;99.90
39095;DHT22;24840;47.508;19.376;2022-11-06T06:07:46;9.90;99.90
39095;DHT22;24840;47.508;19.376;2022-11-06T06:10:12;9.90;99.90
39095;DHT22;24840;47.508;19.376;2022-11-06T06:12:38;9.90;99.90
39095;DHT22;24840;47.508;19.376;2022-11-06T06:15:06;9.90;99.90
39095;DHT22;24840;47.508;19.376;2022-11-06T06:17:32;9.90;99.90
39095;DHT22;24840;47.508;19.376;2022-11-06T06:19:58;9.90;99.90
39095;DHT22;24840;47.508;19.376;2022-11-06T06:22:24;9.90;99.90
39095;DHT22;24840;47.508;19.376;2022-11-06T06:24:50;9.90;99.90
39095;DHT22;24840;47.508;19.376;2022-11-06T06:27:16;10.00;99.90
39095;DHT22;24840;47.508;19.376;2022-11-06T06:29:42;9.90;99.90
39095;DHT22;24840;47.508;19.376;2022-11-06T06:32:07;9.80;99.90
39095;DHT22;24840;47.508;19.376;2022-11-06T06:34:33;9.90;99.90
39095;DHT22;24840;47.508;19.376;2022-11-06T06:36:59;9.90;99.90
39095;DHT22;24840;47.508;19.376;2022-11-06T06:39:25;9.90;99.90
39095;DHT22;24840;47.508;19.376;2022-11-06T06:41:51;9.90;99.90
39095;DHT22;24840;47.508;19.376;2022-11-06T06:44:17;9.90;99.90
39095;DHT22;24840;47.508;19.376;2022-11-06T06:46:43;9.90;99.90
39095;DHT22;24840;47.508;19.376;2022-11-06T06:49:09;10.00;99.90
39095;DHT22;24840;47.508;19.376;2022-11-06T06:51:35;10.00;99.90
39095;DHT22;24840;47.508;19.376;2022-11-06T06:54:01;10.00;99.90
39095;DHT22;24840;47.508;19.376;2022-11-06T06:56:27;10.00;99.90
39095;DHT22;24840;47.508;19.376;2022-11-06T06:58:53;10.00;99.90
39095;DHT22;24840;47.508;19.376;2022-11-06T07:01:19;10.00;99.90
39095;DHT22;24840;47.508;19.376;2022-11-06T07:03:45;10.10;99.90
39095;DHT22;24840;47.508;19.376;2022-11-06T07:06:13;10.10;99.90
39095;DHT22;24840;47.508;19.376;2022-11-06T07:08:39;10.00;99.90
39095;DHT22;24840;47.508;19.376;2022-11-06T07:11:07;10.10;99.90
39095;DHT22;24840;47.508;19.376;2022-11-06T07:13:34;10.10;99.90
39095;DHT22;24840;47.508;19.376;2022-11-06T07:16:04;10.10;99.90
39095;DHT22;24840;47.508;19.376;2022-11-06T07:18:31;10.10;99.90
39095;DHT22;24840;47.508;19.376;2022-11-06T07:20:57;10.10;99.90
39095;DHT22;24840;47.508;19.376;2022-11-06T07:23:23;10.00;99.90
39095;DHT22;24840;47.508;19.376;2022-11-06T07:25:53;10.00;99.90
39095;DHT22;24840;47.508;19.376;2022-11-06T07:28:19;10.10;99.90
39095;DHT22;24840;47.508;19.376;2022-11-06T07:30:46;10.10;99.90
39095;DHT22;24840;47.508;19.376;2022-11-06T07:33:12;10.20;99.90
39095;DHT22;24840;47.508;19.376;2022-11-06T07:35:38;10.10;99.90
39095;DHT22;24840;47.508;19.376;2022-11-06T07:38:04;10.20;99.90
39095;DHT22;24840;47.508;19.376;2022-11-06T07:40:34;10.20;99.90
39095;DHT22;24840;47.508;19.376;2022-11-06T07:43:07;10.20;99.90
39095;DHT22;24840;47.508;19.376;2022-11-06T07:45:34;10.20;99.90
39095;DHT22;24840;47.508;19.376;2022-11-06T07:48:00;10.20;99.90
39095;DHT22;24840;47.508;19.376;2022-11-06T07:50:26;10.20;99.90
39095;DHT22;24840;47.508;19.376;2022-11-06T07:52:52;10.30;99.90
39095;DHT22;24840;47.508;19.376;2022-11-06T07:55:18;10.20;99.90
39095;DHT22;24840;47.508;19.376;2022-11-06T07:57:44;10.30;99.90
39095;DHT22;24840;47.508;19.376;2022-11-06T08:00:11;10.30;99.90
39095;DHT22;24840;47.508;19.376;2022-11-06T08:02:38;10.30;99.90
39095;DHT22;24840;47.508;19.376;2022-11-06T08:05:04;10.30;99.90
39095;DHT22;24840;47.508;19.376;2022-11-06T08:07:30;10.30;99.90
39095;DHT22;24840;47.508;19.376;2022-11-06T08:09:57;10.40;99.90
39095;DHT22;24840;47.508;19.376;2022-11-06T08:12:23;10.40;99.90
39095;DHT22;24840;47.508;19.376;2022-11-06T08:14:48;10.40;99.90
39095;DHT22;24840;47.508;19.376;2022-11-06T08:17:14;10.50;99.90
39095;DHT22;24840;47.508;19.376;2022-11-06T08:19:41;10.60;99.90
39095;DHT22;24840;47.508;19.376;2022-11-06T08:22:07;10.60;99.90
39095;DHT22;24840;47.508;19.376;2022-11-06T08:24:34;10.60;99.90
39095;DHT22;24840;47.508;19.376;2022-11-06T08:27:01;10.60;99.90
39095;DHT22;24840;47.508;19.376;2022-11-06T08:29:28;10.60;99.90
39095;DHT22;24840;47.508;19.376;2022-11-06T08:31:54;10.80;99.90
39095;DHT22;24840;47.508;19.376;2022-11-06T08:34:21;10.80;99.90
39095;DHT22;24840;47.508;19.376;2022-11-06T08:36:47;10.80;99.90
39095;DHT22;24840;47.508;19.376;2022-11-06T08:39:17;10.90;99.90
39095;DHT22;24840;47.508;19.376;2022-11-06T08:41:43;10.90;99.90
39095;DHT22;24840;47.508;19.376;2022-11-06T08:44:09;10.90;99.90
39095;DHT22;24840;47.508;19.376;2022-11-06T08:46:38;11.00;99.90
39095;DHT22;24840;47.508;19.376;2022-11-06T08:49:04;11.00;99.90
39095;DHT22;24840;47.508;19.376;2022-11-06T08:51:30;11.10;99.90
39095;DHT22;24840;47.508;19.376;2022-11-06T08:53:56;11.10;99.90
39095;DHT22;24840;47.508;19.376;2022-11-06T08:56:23;11.10;99.90
39095;DHT22;24840;47.508;19.376;2022-11-06T08:58:49;11.10;99.90
39095;DHT22;24840;47.508;19.376;2022-11-06T09:01:15;11.20;99.90
39095;DHT22;24840;47.508;19.376;2022-11-06T09:03:41;11.30;99.90
39095;DHT22;24840;47.508;19.376;2022-11-06T09:06:07;11.30;99.90
39095;DHT22;24840;47.508;19.376;2022-11-06T09:08:33;11.30;99.90
39095;DHT22;24840;47.508;19.376;2022-11-06T09:10:59;11.30;99.90
39095;DHT22;24840;47.508;19.376;2022-11-06T09:13:25;11.30;99.90
39095;DHT22;24840;47.508;19.376;2022-11-06T09:15:51;11.50;99.90
39095;DHT22;24840;47.508;19.376;2022-11-06T09:18:17;11.50;99.90
39095;DHT22;24840;47.508;19.376;2022-11-06T09:20:44;11.50;99.90
39095;DHT22;24840;47.508;19.376;2022-11-06T09:23:09;11.50;99.90
39095;DHT22;24840;47.508;19.376;2022-11-06T09:25:36;11.40;99.90
39095;DHT22;24840;47.508;19.376;2022-11-06T09:28:04;11.40;99.90
39095;DHT22;24840;47.508;19.376;2022-11-06T09:30:31;11.50;99.90
39095;DHT22;24840;47.508;19.376;2022-11-06T09:32:59;11.50;99.90
39095;DHT22;24840;47.508;19.376;2022-11-06T09:35:27;11.50;99.90
39095;DHT22;24840;47.508;19.376;2022-11-06T09:37:53;11.60;99.90
39095;DHT22;24840;47.508;19.376;2022-11-06T09:40:27;11.80;99.90
39095;DHT22;24840;47.508;19.376;2022-11-06T09:45:30;11.70;99.90
39095;DHT22;24840;47.508;19.376;2022-11-06T09:50:52;11.80;99.90
39095;DHT22;24840;47.508;19.376;2022-11-06T09:53:45;11.80;99.90
39095;DHT22;24840;47.508;19.376;2022-11-06T09:56:13;11.70;99.90
39095;DHT22;24840;47.508;19.376;2022-11-06T09:58:43;11.70;99.90
39095;DHT22;24840;47.508;19.376;2022-11-06T10:01:51;11.70;99.90
39095;DHT22;24840;47.508;19.376;2022-11-06T10:07:35;11.70;99.90
39095;DHT22;24840;47.508;19.376;2022-11-06T10:10:12;11.60;99.90
39095;DHT22;24840;47.508;19.376;2022-11-06T10:15:59;11.80;99.90
39095;DHT22;24840;47.508;19.376;2022-11-06T10:18:38;11.80;99.90
39095;DHT22;24840;47.508;19.376;2022-11-06T10:21:10;12.00;99.90
39095;DHT22;24840;47.508;19.376;2022-11-06T10:23:57;12.10;99.90
39095;DHT22;24840;47.508;19.376;2022-11-06T10:26:50;12.10;99.90
39095;DHT22;24840;47.508;19.376;2022-11-06T11:32:30;16.20;99.90
39095;DHT22;24840;47.508;19.376;2022-11-06T11:34:57;16.10;99.90
39095;DHT22;24840;47.508;19.376;2022-11-06T11:37:31;16.20;99.90
39095;DHT22;24840;47.508;19.376;2022-11-06T11:40:27;15.90;99.90
39095;DHT22;24840;47.508;19.376;2022-11-06T12:20:02;14.40;99.90
39095;DHT22;24840;47.508;19.376;2022-11-06T12:22:36;14.20;99.90
39095;DHT22;24840;47.508;19.376;2022-11-06T12:25:32;14.00;99.90
39095;DHT22;24840;47.508;19.376;2022-11-06T12:27:59;13.80;99.90
39095;DHT22;24840;47.508;19.376;2022-11-06T12:30:28;13.70;99.90
39095;DHT22;24840;47.508;19.376;2022-11-06T12:33:18;13.80;99.90
39095;DHT22;24840;47.508;19.376;2022-11-06T12:40:58;13.90;99.90
39095;DHT22;24840;47.508;19.376;2022-11-06T12:43:43;13.80;99.90
39095;DHT22;24840;47.508;19.376;2022-11-06T13:00:18;13.90;99.90
39095;DHT22;24840;47.508;19.376;2022-11-06T13:08:52;14.00;99.90
39095;DHT22;24840;47.508;19.376;2022-11-06T13:13:54;14.80;99.90
39095;DHT22;24840;47.508;19.376;2022-11-06T13:16:32;15.20;99.90
39095;DHT22;24840;47.508;19.376;2022-11-06T13:22:44;15.10;99.90
39095;DHT22;24840;47.508;19.376;2022-11-06T13:30:41;15.40;99.90
39095;DHT22;24840;47.508;19.376;2022-11-06T13:35:49;15.20;99.90
39095;DHT22;24840;47.508;19.376;2022-11-06T13:38:28;15.50;99.90
39095;DHT22;24840;47.508;19.376;2022-11-06T13:41:26;15.20;99.90
39095;DHT22;24840;47.508;19.376;2022-11-06T13:44:02;15.20;99.90
39095;DHT22;24840;47.508;19.376;2022-11-06T13:46:47;15.30;99.90
39095;DHT22;24840;47.508;19.376;2022-11-06T13:52:24;15.00;99.90
39095;DHT22;24840;47.508;19.376;2022-11-06T14:08:10;14.30;99.90
39095;DHT22;24840;47.508;19.376;2022-11-06T14:10:47;14.20;99.90
39095;DHT22;24840;47.508;19.376;2022-11-06T14:13:15;14.20;99.90
39095;DHT22;24840;47.508;19.376;2022-11-06T14:15:41;14.10;99.90
39095;DHT22;24840;47.508;19.376;2022-11-06T14:18:21;14.00;99.90
39095;DHT22;24840;47.508;19.376;2022-11-06T14:20:48;13.90;99.90
39095;DHT22;24840;47.508;19.376;2022-11-06T14:26:11;13.70;99.90
39095;DHT22;24840;47.508;19.376;2022-11-06T14:28:39;13.70;99.90
39095;DHT22;24840;47.508;19.376;2022-11-06T14:31:07;13.50;99.90
39095;DHT22;24840;47.508;19.376;2022-11-06T14:38:50;13.40;99.90
39095;DHT22;24840;47.508;19.376;2022-11-06T14:44:23;13.30;99.90
39095;DHT22;24840;47.508;19.376;2022-11-06T14:47:01;13.20;99.90
39095;DHT22;24840;47.508;19.376;2022-11-06T14:49:42;13.20;99.90
39095;DHT22;24840;47.508;19.376;2022-11-06T14:52:14;13.20;99.90
39095;DHT22;24840;47.508;19.376;2022-11-06T14:54:52;13.20;99.90
39095;DHT22;24840;47.508;19.376;2022-11-06T15:00:00;13.10;99.90
39095;DHT22;24840;47.508;19.376;2022-11-06T15:02:29;13.00;99.90
39095;DHT22;24840;47.508;19.376;2022-11-06T15:05:04;13.00;99.90
39095;DHT22;24840;47.508;19.376;2022-11-06T15:10:03;12.90;99.90
39095;DHT22;24840;47.508;19.376;2022-11-06T15:16:00;12.70;99.90
39095;DHT22;24840;47.508;19.376;2022-11-06T15:18:29;12.80;99.90
39095;DHT22;24840;47.508;19.376;2022-11-06T15:21:07;12.70;99.90
39095;DHT22;24840;47.508;19.376;2022-11-06T15:23:39;12.60;99.90
39095;DHT22;24840;47.508;19.376;2022-11-06T15:31:28;12.40;99.90
39095;DHT22;24840;47.508;19.376;2022-11-06T15:33:59;12.30;99.90
39095;DHT22;24840;47.508;19.376;2022-11-06T15:36:27;12.20;99.90
39095;DHT22;24840;47.508;19.376;2022-11-06T15:38:57;12.10;99.90
39095;DHT22;24840;47.508;19.376;2022-11-06T15:41:24;12.10;99.90
39095;DHT22;24840;47.508;19.376;2022-11-06T15:43:53;12.10;99.90
39095;DHT22;24840;47.508;19.376;2022-11-06T15:46:25;12.10;99.90
39095;DHT22;24840;47.508;19.376;2022-11-06T15:49:17;12.10;99.90
39095;DHT22;24840;47.508;19.376;2022-11-06T15:51:57;12.00;99.90
39095;DHT22;24840;47.508;19.376;2022-11-06T15:54:38;12.10;99.90
39095;DHT22;24840;47.508;19.376;2022-11-06T15:57:20;12.00;99.90
39095;DHT22;24840;47.508;19.376;2022-11-06T15:59:47;12.00;99.90
39095;DHT22;24840;47.508;19.376;2022-11-06T16:02:21;12.00;99.90
39095;DHT22;24840;47.508;19.376;2022-11-06T16:04:49;12.00;99.90
39095;DHT22;24840;47.508;19.376;2022-11-06T16:07:17;12.00;99.90
39095;DHT22;24840;47.508;19.376;2022-11-06T16:09:45;12.00;99.90
39095;DHT22;24840;47.508;19.376;2022-11-06T16:12:15;11.90;99.90
39095;DHT22;24840;47.508;19.376;2022-11-06T16:14:43;11.80;99.90
39095;DHT22;24840;47.508;19.376;2022-11-06T16:17:30;11.70;99.90
39095;DHT22;24840;47.508;19.376;2022-11-06T16:19:58;11.80;99.90
39095;DHT22;24840;47.508;19.376;2022-11-06T16:22:31;11.70;99.90
39095;DHT22;24840;47.508;19.376;2022-11-06T16:25:03;11.70;99.90
39095;DHT22;24840;47.508;19.376;2022-11-06T16:27:36;11.70;99.90
39095;DHT22;24840;47.508;19.376;2022-11-06T16:30:04;11.70;99.90
39095;DHT22;24840;47.508;19.376;2022-11-06T16:32:37;11.70;99.90
39095;DHT22;24840;47.508;19.376;2022-11-06T16:35:34;11.60;99.90
39095;DHT22;24840;47.508;19.376;2022-11-06T16:38:26;11.50;99.90
39095;DHT22;24840;47.508;19.376;2022-11-06T16:40:53;11.50;99.90
39095;DHT22;24840;47.508;19.376;2022-11-06T16:43:21;11.40;99.90
39095;DHT22;24840;47.508;19.376;2022-11-06T16:45:51;11.30;99.90
39095;DHT22;24840;47.508;19.376;2022-11-06T16:48:31;11.30;99.90
39095;DHT22;24840;47.508;19.376;2022-11-06T16:51:11;11.20;99.90
39095;DHT22;24840;47.508;19.376;2022-11-06T16:53:52;11.10;99.90
39095;DHT22;24840;47.508;19.376;2022-11-06T16:56:38;11.00;99.90
39095;DHT22;24840;47.508;19.376;2022-11-06T16:59:14;10.90;99.90
39095;DHT22;24840;47.508;19.376;2022-11-06T17:01:45;11.00;99.90
39095;DHT22;24840;47.508;19.376;2022-11-06T17:04:26;10.90;99.90
39095;DHT22;24840;47.508;19.376;2022-11-06T17:06:56;10.80;99.90
39095;DHT22;24840;47.508;19.376;2022-11-06T17:09:31;10.70;99.90
39095;DHT22;24840;47.508;19.376;2022-11-06T17:12:00;10.70;99.90
39095;DHT22;24840;47.508;19.376;2022-11-06T17:14:27;10.70;99.90
39095;DHT22;24840;47.508;19.376;2022-11-06T17:16:55;10.60;99.90
39095;DHT22;24840;47.508;19.376;2022-11-06T17:19:23;10.50;99.90
39095;DHT22;24840;47.508;19.376;2022-11-06T17:21:51;10.30;99.90
39095;DHT22;24840;47.508;19.376;2022-11-06T17:24:17;10.20;99.90
39095;DHT22;24840;47.508;19.376;2022-11-06T17:26:50;10.20;99.90
39095;DHT22;24840;47.508;19.376;2022-11-06T17:29:17;10.20;99.90
39095;DHT22;24840;47.508;19.376;2022-11-06T17:31:44;10.10;99.90
39095;DHT22;24840;47.508;19.376;2022-11-06T17:34:11;10.00;99.90
39095;DHT22;24840;47.508;19.376;2022-11-06T17:36:38;10.00;99.90
39095;DHT22;24840;47.508;19.376;2022-11-06T17:39:04;9.90;99.90
39095;DHT22;24840;47.508;19.376;2022-11-06T17:41:31;9.80;99.90
39095;DHT22;24840;47.508;19.376;2022-11-06T17:43:59;9.70;99.90
39095;DHT22;24840;47.508;19.376;2022-11-06T17:46:30;9.60;99.90
39095;DHT22;24840;47.508;19.376;2022-11-06T17:48:58;9.70;99.90
39095;DHT22;24840;47.508;19.376;2022-11-06T17:51:24;9.60;99.90
39095;DHT22;24840;47.508;19.376;2022-11-06T17:54:11;9.50;99.90
39095;DHT22;24840;47.508;19.376;2022-11-06T17:56:38;9.40;99.90
39095;DHT22;24840;47.508;19.376;2022-11-06T17:59:06;9.30;99.90
39095;DHT22;24840;47.508;19.376;2022-11-06T18:01:33;9.30;99.90
39095;DHT22;24840;47.508;19.376;2022-11-06T18:03:59;9.20;99.90
39095;DHT22;24840;47.508;19.376;2022-11-06T18:06:26;9.20;99.90
39095;DHT22;24840;47.508;19.376;2022-11-06T18:09:00;9.20;99.90
39095;DHT22;24840;47.508;19.376;2022-11-06T18:11:27;9.10;99.90
39095;DHT22;24840;47.508;19.376;2022-11-06T18:13:55;9.10;99.90
39095;DHT22;24840;47.508;19.376;2022-11-06T18:16:25;9.10;99.90
39095;DHT22;24840;47.508;19.376;2022-11-06T18:18:55;9.10;99.90
39095;DHT22;24840;47.508;19.376;2022-11-06T18:21:22;9.00;99.90
39095;DHT22;24840;47.508;19.376;2022-11-06T18:23:48;9.00;99.90
39095;DHT22;24840;47.508;19.376;2022-11-06T18:26:16;9.00;99.90
39095;DHT22;24840;47.508;19.376;2022-11-06T18:28:42;9.00;99.90
39095;DHT22;24840;47.508;19.376;2022-11-06T18:31:08;9.00;99.90
39095;DHT22;24840;47.508;19.376;2022-11-06T18:33:34;9.00;99.90
39095;DHT22;24840;47.508;19.376;2022-11-06T18:36:06;9.00;99.90
39095;DHT22;24840;47.508;19.376;2022-11-06T18:38:32;9.00;99.90
39095;DHT22;24840;47.508;19.376;2022-11-06T18:41:09;9.10;99.90
39095;DHT22;24840;47.508;19.376;2022-11-06T18:43:36;9.10;99.90
39095;DHT22;24840;47.508;19.376;2022-11-06T18:46:04;9.10;99.90
39095;DHT22;24840;47.508;19.376;2022-11-06T18:48:31;9.10;99.90
39095;DHT22;24840;47.508;19.376;2022-11-06T18:51:19;9.10;99.90
39095;DHT22;24840;47.508;19.376;2022-11-06T18:53:44;9.10;99.90
39095;DHT22;24840;47.508;19.376;2022-11-06T18:56:12;9.10;99.90
39095;DHT22;24840;47.508;19.376;2022-11-06T18:58:40;9.10;99.90
39095;DHT22;24840;47.508;19.376;2022-11-06T19:01:09;9.10;99.90
39095;DHT22;24840;47.508;19.376;2022-11-06T19:03:35;9.10;99.90
39095;DHT22;24840;47.508;19.376;2022-11-06T19:06:03;9.10;99.90
39095;DHT22;24840;47.508;19.376;2022-11-06T19:08:29;9.10;99.90
39095;DHT22;24840;47.508;19.376;2022-11-06T19:10:55;9.10;99.90
39095;DHT22;24840;47.508;19.376;2022-11-06T19:13:21;9.10;99.90
39095;DHT22;24840;47.508;19.376;2022-11-06T19:15:47;9.10;99.90
39095;DHT22;24840;47.508;19.376;2022-11-06T19:18:13;9.00;99.90
39095;DHT22;24840;47.508;19.376;2022-11-06T19:20:42;9.10;99.90
39095;DHT22;24840;47.508;19.376;2022-11-06T19:23:12;9.00;99.90